sensor_id;sensor_type;location;lat;lon;timestamp;P1;durP1;ratioP1;P2;durP2;ratioP2
50906;SDS011;36882;27.680;85.304;2023-05-29T00:02:01;64.60;;;41.00;;
50906;SDS011;36882;27.680;85.304;2023-05-29T00:04:31;78.18;;;43.42;;
50906;SDS011;36882;27.680;85.304;2023-05-29T00:07:00;67.97;;;41.55;;
50906;SDS011;36882;27.680;85.304;2023-05-29T00:09:30;64.75;;;39.20;;
50906;SDS011;36882;27.680;85.304;2023-05-29T00:12:03;59.30;;;37.15;;
50906;SDS011;36882;27.680;85.304;2023-05-29T00:14:33;54.33;;;37.83;;
50906;SDS011;36882;27.680;85.304;2023-05-29T00:17:03;55.85;;;33.00;;
50906;SDS011;36882;27.680;85.304;2023-05-29T00:19:34;54.97;;;36.40;;
50906;SDS011;36882;27.680;85.304;2023-05-29T00:22:04;52.13;;;35.35;;
50906;SDS011;36882;27.680;85.304;2023-05-29T00:24:33;56.15;;;35.00;;
50906;SDS011;36882;27.680;85.304;2023-05-29T00:27:05;63.22;;;38.40;;
50906;SDS011;36882;27.680;85.304;2023-05-29T00:29:36;59.67;;;34.53;;
50906;SDS011;36882;27.680;85.304;2023-05-29T00:32:07;51.97;;;31.00;;
50906;SDS011;36882;27.680;85.304;2023-05-29T00:34:37;52.45;;;33.03;;
50906;SDS011;36882;27.680;85.304;2023-05-29T00:37:07;52.33;;;32.90;;
50906;SDS011;36882;27.680;85.304;2023-05-29T00:39:36;46.53;;;33.03;;
50906;SDS011;36882;27.680;85.304;2023-05-29T00:42:06;53.35;;;35.13;;
50906;SDS011;36882;27.680;85.304;2023-05-29T00:44:37;49.67;;;34.13;;
50906;SDS011;36882;27.680;85.304;2023-05-29T00:47:07;59.80;;;33.10;;
50906;SDS011;36882;27.680;85.304;2023-05-29T00:52:06;50.65;;;33.45;;
50906;SDS011;36882;27.680;85.304;2023-05-29T00:54:42;50.92;;;31.95;;
50906;SDS011;36882;27.680;85.304;2023-05-29T00:57:13;44.67;;;31.27;;
50906;SDS011;36882;27.680;85.304;2023-05-29T00:59:46;49.25;;;28.13;;
50906;SDS011;36882;27.680;85.304;2023-05-29T01:02:19;42.38;;;29.75;;
50906;SDS011;36882;27.680;85.304;2023-05-29T01:04:50;40.05;;;26.98;;
50906;SDS011;36882;27.680;85.304;2023-05-29T01:07:22;49.58;;;29.70;;
50906;SDS011;36882;27.680;85.304;2023-05-29T01:09:55;44.60;;;28.25;;
50906;SDS011;36882;27.680;85.304;2023-05-29T01:15:11;45.17;;;30.70;;
50906;SDS011;36882;27.680;85.304;2023-05-29T01:28:13;47.28;;;32.08;;
50906;SDS011;36882;27.680;85.304;2023-05-29T01:30:45;46.25;;;30.50;;
50906;SDS011;36882;27.680;85.304;2023-05-29T01:33:20;44.90;;;29.92;;
50906;SDS011;36882;27.680;85.304;2023-05-29T01:35:49;46.75;;;31.95;;
50906;SDS011;36882;27.680;85.304;2023-05-29T01:38:28;42.45;;;31.10;;
50906;SDS011;36882;27.680;85.304;2023-05-29T01:40:58;47.78;;;31.52;;
50906;SDS011;36882;27.680;85.304;2023-05-29T01:43:30;56.90;;;35.15;;
50906;SDS011;36882;27.680;85.304;2023-05-29T01:46:00;54.17;;;35.55;;
50906;SDS011;36882;27.680;85.304;2023-05-29T01:48:30;47.40;;;35.17;;
50906;SDS011;36882;27.680;85.304;2023-05-29T01:53:29;42.55;;;29.42;;
50906;SDS011;36882;27.680;85.304;2023-05-29T01:58:27;44.72;;;31.50;;
50906;SDS011;36882;27.680;85.304;2023-05-29T02:00:58;50.28;;;31.40;;
50906;SDS011;36882;27.680;85.304;2023-05-29T02:03:28;48.15;;;29.92;;
50906;SDS011;36882;27.680;85.304;2023-05-29T02:06:01;48.17;;;28.35;;
50906;SDS011;36882;27.680;85.304;2023-05-29T02:11:02;47.17;;;30.63;;
50906;SDS011;36882;27.680;85.304;2023-05-29T02:13:36;44.25;;;29.15;;
50906;SDS011;36882;27.680;85.304;2023-05-29T02:16:27;44.65;;;29.55;;
50906;SDS011;36882;27.680;85.304;2023-05-29T02:18:57;53.08;;;31.67;;
50906;SDS011;36882;27.680;85.304;2023-05-29T02:23:55;55.30;;;34.10;;
50906;SDS011;36882;27.680;85.304;2023-05-29T02:28:54;49.17;;;31.90;;
50906;SDS011;36882;27.680;85.304;2023-05-29T02:33:53;43.65;;;27.85;;
50906;SDS011;36882;27.680;85.304;2023-05-29T02:38:52;48.53;;;32.53;;
50906;SDS011;36882;27.680;85.304;2023-05-29T02:41:22;49.15;;;30.70;;
50906;SDS011;36882;27.680;85.304;2023-05-29T02:43:52;42.40;;;29.48;;
50906;SDS011;36882;27.680;85.304;2023-05-29T02:46:21;44.10;;;28.70;;
50906;SDS011;36882;27.680;85.304;2023-05-29T02:51:23;27.35;;;16.35;;
50906;SDS011;36882;27.680;85.304;2023-05-29T02:53:55;37.70;;;23.02;;
50906;SDS011;36882;27.680;85.304;2023-05-29T02:56:25;43.65;;;27.85;;
50906;SDS011;36882;27.680;85.304;2023-05-29T02:59:19;43.08;;;30.10;;
50906;SDS011;36882;27.680;85.304;2023-05-29T03:01:51;44.88;;;29.17;;
50906;SDS011;36882;27.680;85.304;2023-05-29T03:04:23;49.28;;;30.02;;
50906;SDS011;36882;27.680;85.304;2023-05-29T03:09:24;45.47;;;27.10;;
50906;SDS011;36882;27.680;85.304;2023-05-29T03:12:08;42.60;;;27.02;;
50906;SDS011;36882;27.680;85.304;2023-05-29T03:14:42;38.10;;;25.05;;
50906;SDS011;36882;27.680;85.304;2023-05-29T03:17:12;42.30;;;27.33;;
50906;SDS011;36882;27.680;85.304;2023-05-29T03:19:45;36.80;;;26.60;;
50906;SDS011;36882;27.680;85.304;2023-05-29T03:24:43;30.63;;;22.88;;
50906;SDS011;36882;27.680;85.304;2023-05-29T03:27:13;35.50;;;24.20;;
50906;SDS011;36882;27.680;85.304;2023-05-29T03:29:43;34.95;;;24.13;;
50906;SDS011;36882;27.680;85.304;2023-05-29T03:32:14;38.53;;;24.27;;
50906;SDS011;36882;27.680;85.304;2023-05-29T03:34:44;31.45;;;20.92;;
50906;SDS011;36882;27.680;85.304;2023-05-29T03:37:13;37.72;;;20.63;;
50906;SDS011;36882;27.680;85.304;2023-05-29T03:42:12;33.22;;;17.55;;
50906;SDS011;36882;27.680;85.304;2023-05-29T03:44:43;29.50;;;18.05;;
50906;SDS011;36882;27.680;85.304;2023-05-29T03:47:13;28.50;;;17.75;;
50906;SDS011;36882;27.680;85.304;2023-05-29T03:49:42;30.33;;;19.25;;
50906;SDS011;36882;27.680;85.304;2023-05-29T03:52:12;30.33;;;17.67;;
50906;SDS011;36882;27.680;85.304;2023-05-29T03:54:42;27.30;;;19.00;;
50906;SDS011;36882;27.680;85.304;2023-05-29T03:57:12;29.63;;;19.77;;
50906;SDS011;36882;27.680;85.304;2023-05-29T04:02:11;29.92;;;19.75;;
50906;SDS011;36882;27.680;85.304;2023-05-29T04:04:44;26.67;;;17.27;;
50906;SDS011;36882;27.680;85.304;2023-05-29T04:09:43;38.83;;;25.27;;
50906;SDS011;36882;27.680;85.304;2023-05-29T04:14:43;33.10;;;23.02;;
50906;SDS011;36882;27.680;85.304;2023-05-29T04:19:42;34.67;;;23.75;;
50906;SDS011;36882;27.680;85.304;2023-05-29T04:22:12;37.80;;;22.90;;
50906;SDS011;36882;27.680;85.304;2023-05-29T04:27:11;34.17;;;18.55;;
50906;SDS011;36882;27.680;85.304;2023-05-29T04:29:42;32.20;;;19.33;;
50906;SDS011;36882;27.680;85.304;2023-05-29T04:32:16;44.70;;;20.92;;
50906;SDS011;36882;27.680;85.304;2023-05-29T04:34:46;27.52;;;19.65;;
50906;SDS011;36882;27.680;85.304;2023-05-29T04:37:16;32.95;;;22.60;;
50906;SDS011;36882;27.680;85.304;2023-05-29T04:39:46;38.00;;;22.02;;
50906;SDS011;36882;27.680;85.304;2023-05-29T04:42:20;22.80;;;17.50;;
50906;SDS011;36882;27.680;85.304;2023-05-29T04:44:51;35.20;;;23.70;;
50906;SDS011;36882;27.680;85.304;2023-05-29T04:47:27;42.50;;;22.85;;
50906;SDS011;36882;27.680;85.304;2023-05-29T04:49:56;48.42;;;24.95;;
50906;SDS011;36882;27.680;85.304;2023-05-29T04:52:29;37.35;;;21.85;;
50906;SDS011;36882;27.680;85.304;2023-05-29T04:55:01;30.52;;;21.00;;
50906;SDS011;36882;27.680;85.304;2023-05-29T04:57:30;38.30;;;20.80;;
50906;SDS011;36882;27.680;85.304;2023-05-29T05:00:00;34.25;;;21.15;;
50906;SDS011;36882;27.680;85.304;2023-05-29T05:02:33;32.83;;;18.08;;
50906;SDS011;36882;27.680;85.304;2023-05-29T05:05:03;32.70;;;19.35;;
50906;SDS011;36882;27.680;85.304;2023-05-29T05:07:33;26.48;;;17.42;;
50906;SDS011;36882;27.680;85.304;2023-05-29T05:10:03;29.08;;;18.33;;
50906;SDS011;36882;27.680;85.304;2023-05-29T05:12:33;26.67;;;17.15;;
50906;SDS011;36882;27.680;85.304;2023-05-29T05:17:31;26.30;;;17.02;;
50906;SDS011;36882;27.680;85.304;2023-05-29T05:20:01;20.17;;;14.57;;
50906;SDS011;36882;27.680;85.304;2023-05-29T05:22:34;24.10;;;15.60;;
50906;SDS011;36882;27.680;85.304;2023-05-29T05:25:04;24.58;;;17.55;;
50906;SDS011;36882;27.680;85.304;2023-05-29T05:27:34;33.30;;;19.85;;
50906;SDS011;36882;27.680;85.304;2023-05-29T05:30:03;32.80;;;19.90;;
50906;SDS011;36882;27.680;85.304;2023-05-29T05:32:33;36.17;;;20.73;;
50906;SDS011;36882;27.680;85.304;2023-05-29T05:35:03;33.05;;;19.45;;
50906;SDS011;36882;27.680;85.304;2023-05-29T05:37:33;30.45;;;18.15;;
50906;SDS011;36882;27.680;85.304;2023-05-29T05:42:37;31.90;;;18.40;;
50906;SDS011;36882;27.680;85.304;2023-05-29T05:45:07;26.38;;;16.42;;
50906;SDS011;36882;27.680;85.304;2023-05-29T05:47:36;28.52;;;16.02;;
50906;SDS011;36882;27.680;85.304;2023-05-29T05:50:06;23.38;;;16.23;;
50906;SDS011;36882;27.680;85.304;2023-05-29T05:52:37;27.73;;;16.42;;
50906;SDS011;36882;27.680;85.304;2023-05-29T05:55:07;28.42;;;16.80;;
50906;SDS011;36882;27.680;85.304;2023-05-29T05:57:36;23.48;;;15.32;;
50906;SDS011;36882;27.680;85.304;2023-05-29T06:00:09;19.70;;;14.68;;
50906;SDS011;36882;27.680;85.304;2023-05-29T06:02:42;37.60;;;17.60;;
50906;SDS011;36882;27.680;85.304;2023-05-29T06:05:13;25.60;;;16.80;;
50906;SDS011;36882;27.680;85.304;2023-05-29T06:07:43;26.75;;;16.25;;
50906;SDS011;36882;27.680;85.304;2023-05-29T06:12:41;24.88;;;16.02;;
50906;SDS011;36882;27.680;85.304;2023-05-29T06:15:11;27.45;;;16.08;;
50906;SDS011;36882;27.680;85.304;2023-05-29T06:17:41;33.70;;;18.42;;
50906;SDS011;36882;27.680;85.304;2023-05-29T06:20:13;24.70;;;15.95;;
50906;SDS011;36882;27.680;85.304;2023-05-29T06:22:43;26.30;;;18.35;;
50906;SDS011;36882;27.680;85.304;2023-05-29T06:25:20;25.50;;;18.23;;
50906;SDS011;36882;27.680;85.304;2023-05-29T06:27:50;29.17;;;17.20;;
50906;SDS011;36882;27.680;85.304;2023-05-29T06:30:20;23.40;;;16.25;;
50906;SDS011;36882;27.680;85.304;2023-05-29T06:32:50;22.88;;;16.92;;
50906;SDS011;36882;27.680;85.304;2023-05-29T06:35:19;28.65;;;18.85;;
50906;SDS011;36882;27.680;85.304;2023-05-29T06:37:49;24.85;;;16.95;;
50906;SDS011;36882;27.680;85.304;2023-05-29T06:40:19;25.42;;;17.77;;
50906;SDS011;36882;27.680;85.304;2023-05-29T06:42:51;25.58;;;18.10;;
50906;SDS011;36882;27.680;85.304;2023-05-29T06:45:21;19.10;;;15.77;;
50906;SDS011;36882;27.680;85.304;2023-05-29T06:47:51;23.15;;;16.17;;
50906;SDS011;36882;27.680;85.304;2023-05-29T06:50:27;27.17;;;17.65;;
50906;SDS011;36882;27.680;85.304;2023-05-29T06:52:57;29.33;;;17.90;;
50906;SDS011;36882;27.680;85.304;2023-05-29T06:55:28;30.70;;;16.50;;
50906;SDS011;36882;27.680;85.304;2023-05-29T07:00:27;21.05;;;15.82;;
50906;SDS011;36882;27.680;85.304;2023-05-29T07:03:00;24.13;;;15.90;;
50906;SDS011;36882;27.680;85.304;2023-05-29T07:05:29;21.75;;;15.15;;
50906;SDS011;36882;27.680;85.304;2023-05-29T07:07:59;23.00;;;15.80;;
50906;SDS011;36882;27.680;85.304;2023-05-29T07:10:29;26.45;;;18.48;;
50906;SDS011;36882;27.680;85.304;2023-05-29T07:15:27;24.15;;;14.15;;
50906;SDS011;36882;27.680;85.304;2023-05-29T07:17:57;22.45;;;14.73;;
50906;SDS011;36882;27.680;85.304;2023-05-29T07:20:30;22.02;;;16.05;;
50906;SDS011;36882;27.680;85.304;2023-05-29T07:23:00;22.40;;;14.95;;
50906;SDS011;36882;27.680;85.304;2023-05-29T07:25:30;33.58;;;16.55;;
50906;SDS011;36882;27.680;85.304;2023-05-29T07:28:00;26.05;;;15.75;;
50906;SDS011;36882;27.680;85.304;2023-05-29T07:30:47;22.00;;;15.98;;
50906;SDS011;36882;27.680;85.304;2023-05-29T07:33:21;28.45;;;14.65;;
50906;SDS011;36882;27.680;85.304;2023-05-29T07:35:50;27.20;;;15.82;;
50906;SDS011;36882;27.680;85.304;2023-05-29T07:38:20;30.25;;;15.90;;
50906;SDS011;36882;27.680;85.304;2023-05-29T07:40:51;27.50;;;15.18;;
50906;SDS011;36882;27.680;85.304;2023-05-29T07:43:21;26.85;;;15.25;;
50906;SDS011;36882;27.680;85.304;2023-05-29T07:45:52;21.02;;;14.32;;
50906;SDS011;36882;27.680;85.304;2023-05-29T07:48:21;23.83;;;14.75;;
50906;SDS011;36882;27.680;85.304;2023-05-29T07:50:51;26.98;;;14.60;;
50906;SDS011;36882;27.680;85.304;2023-05-29T07:53:21;22.13;;;14.68;;
50906;SDS011;36882;27.680;85.304;2023-05-29T07:55:51;22.48;;;16.77;;
50906;SDS011;36882;27.680;85.304;2023-05-29T07:58:20;24.50;;;14.18;;
50906;SDS011;36882;27.680;85.304;2023-05-29T08:00:51;23.58;;;14.10;;
50906;SDS011;36882;27.680;85.304;2023-05-29T08:03:21;20.83;;;15.68;;
50906;SDS011;36882;27.680;85.304;2023-05-29T08:05:51;24.45;;;15.48;;
50906;SDS011;36882;27.680;85.304;2023-05-29T08:08:21;27.15;;;16.63;;
50906;SDS011;36882;27.680;85.304;2023-05-29T08:10:50;22.38;;;14.45;;
50906;SDS011;36882;27.680;85.304;2023-05-29T08:13:20;19.77;;;14.98;;
50906;SDS011;36882;27.680;85.304;2023-05-29T08:15:53;22.20;;;14.02;;
50906;SDS011;36882;27.680;85.304;2023-05-29T08:18:26;24.23;;;14.52;;
50906;SDS011;36882;27.680;85.304;2023-05-29T08:20:55;19.35;;;12.90;;
50906;SDS011;36882;27.680;85.304;2023-05-29T08:23:26;24.67;;;13.98;;
50906;SDS011;36882;27.680;85.304;2023-05-29T08:25:58;21.30;;;14.05;;
50906;SDS011;36882;27.680;85.304;2023-05-29T08:28:28;24.88;;;13.60;;
50906;SDS011;36882;27.680;85.304;2023-05-29T08:30:58;24.95;;;12.52;;
50906;SDS011;36882;27.680;85.304;2023-05-29T08:33:28;20.90;;;14.30;;
50906;SDS011;36882;27.680;85.304;2023-05-29T08:36:01;27.73;;;14.50;;
50906;SDS011;36882;27.680;85.304;2023-05-29T08:38:31;21.75;;;14.57;;
50906;SDS011;36882;27.680;85.304;2023-05-29T08:41:01;19.27;;;12.65;;
50906;SDS011;36882;27.680;85.304;2023-05-29T08:43:31;21.83;;;13.65;;
50906;SDS011;36882;27.680;85.304;2023-05-29T08:46:04;21.27;;;13.85;;
50906;SDS011;36882;27.680;85.304;2023-05-29T08:48:34;24.48;;;14.63;;
50906;SDS011;36882;27.680;85.304;2023-05-29T08:51:05;25.85;;;15.25;;
50906;SDS011;36882;27.680;85.304;2023-05-29T08:53:36;21.67;;;14.07;;
50906;SDS011;36882;27.680;85.304;2023-05-29T08:56:07;28.05;;;15.43;;
50906;SDS011;36882;27.680;85.304;2023-05-29T08:58:52;23.63;;;15.02;;
50906;SDS011;36882;27.680;85.304;2023-05-29T09:01:23;26.70;;;15.15;;
50906;SDS011;36882;27.680;85.304;2023-05-29T09:03:52;29.10;;;15.65;;
50906;SDS011;36882;27.680;85.304;2023-05-29T09:06:22;20.05;;;14.65;;
50906;SDS011;36882;27.680;85.304;2023-05-29T09:08:53;24.27;;;15.07;;
50906;SDS011;36882;27.680;85.304;2023-05-29T09:11:24;28.77;;;15.30;;
50906;SDS011;36882;27.680;85.304;2023-05-29T09:13:54;25.52;;;13.93;;
50906;SDS011;36882;27.680;85.304;2023-05-29T09:16:25;22.70;;;13.93;;
50906;SDS011;36882;27.680;85.304;2023-05-29T09:19:05;27.33;;;13.60;;
50906;SDS011;36882;27.680;85.304;2023-05-29T09:21:37;33.95;;;14.75;;
50906;SDS011;36882;27.680;85.304;2023-05-29T09:24:07;24.08;;;14.20;;
50906;SDS011;36882;27.680;85.304;2023-05-29T09:26:37;22.45;;;14.55;;
50906;SDS011;36882;27.680;85.304;2023-05-29T09:29:08;29.70;;;15.50;;
50906;SDS011;36882;27.680;85.304;2023-05-29T09:31:38;23.05;;;14.25;;
50906;SDS011;36882;27.680;85.304;2023-05-29T09:34:15;21.10;;;14.23;;
50906;SDS011;36882;27.680;85.304;2023-05-29T09:39:14;35.67;;;18.10;;
50906;SDS011;36882;27.680;85.304;2023-05-29T09:41:45;34.88;;;20.27;;
50906;SDS011;36882;27.680;85.304;2023-05-29T09:44:16;33.08;;;18.88;;
50906;SDS011;36882;27.680;85.304;2023-05-29T09:46:46;31.92;;;19.73;;
50906;SDS011;36882;27.680;85.304;2023-05-29T09:49:18;29.35;;;18.10;;
50906;SDS011;36882;27.680;85.304;2023-05-29T09:51:54;32.97;;;19.38;;
50906;SDS011;36882;27.680;85.304;2023-05-29T09:54:24;23.35;;;19.15;;
50906;SDS011;36882;27.680;85.304;2023-05-29T09:56:59;49.22;;;19.25;;
50906;SDS011;36882;27.680;85.304;2023-05-29T09:59:32;28.23;;;17.90;;
50906;SDS011;36882;27.680;85.304;2023-05-29T10:02:04;36.65;;;18.83;;
50906;SDS011;36882;27.680;85.304;2023-05-29T10:06:18;25.13;;;18.13;;
50906;SDS011;36882;27.680;85.304;2023-05-29T10:08:50;31.35;;;18.67;;
50906;SDS011;36882;27.680;85.304;2023-05-29T10:11:21;24.90;;;16.85;;
50906;SDS011;36882;27.680;85.304;2023-05-29T10:13:54;25.23;;;17.40;;
50906;SDS011;36882;27.680;85.304;2023-05-29T10:16:25;24.52;;;17.00;;
50906;SDS011;36882;27.680;85.304;2023-05-29T10:18:57;27.02;;;18.13;;
50906;SDS011;36882;27.680;85.304;2023-05-29T10:21:28;23.23;;;16.85;;
50906;SDS011;36882;27.680;85.304;2023-05-29T10:23:59;25.67;;;17.05;;
50906;SDS011;36882;27.680;85.304;2023-05-29T10:26:29;24.77;;;16.08;;
50906;SDS011;36882;27.680;85.304;2023-05-29T10:29:16;25.58;;;15.65;;
50906;SDS011;36882;27.680;85.304;2023-05-29T10:39:47;33.58;;;18.10;;
50906;SDS011;36882;27.680;85.304;2023-05-29T10:45:06;21.98;;;15.63;;
50906;SDS011;36882;27.680;85.304;2023-05-29T10:47:36;26.02;;;15.80;;
50906;SDS011;36882;27.680;85.304;2023-05-29T10:50:06;28.65;;;15.85;;
50906;SDS011;36882;27.680;85.304;2023-05-29T10:52:36;34.65;;;18.95;;
50906;SDS011;36882;27.680;85.304;2023-05-29T10:55:16;36.55;;;16.58;;
50906;SDS011;36882;27.680;85.304;2023-05-29T10:57:48;27.25;;;16.35;;
50906;SDS011;36882;27.680;85.304;2023-05-29T11:00:18;28.27;;;16.98;;
50906;SDS011;36882;27.680;85.304;2023-05-29T11:02:51;33.28;;;19.70;;
50906;SDS011;36882;27.680;85.304;2023-05-29T11:05:22;32.38;;;18.20;;
50906;SDS011;36882;27.680;85.304;2023-05-29T11:07:57;30.05;;;18.00;;
50906;SDS011;36882;27.680;85.304;2023-05-29T11:13:25;54.70;;;35.08;;
50906;SDS011;36882;27.680;85.304;2023-05-29T11:16:05;42.47;;;28.45;;
50906;SDS011;36882;27.680;85.304;2023-05-29T11:18:41;35.47;;;20.50;;
50906;SDS011;36882;27.680;85.304;2023-05-29T11:24:05;29.13;;;19.42;;
50906;SDS011;36882;27.680;85.304;2023-05-29T11:26:36;45.95;;;28.50;;
50906;SDS011;36882;27.680;85.304;2023-05-29T11:29:06;29.73;;;21.15;;
50906;SDS011;36882;27.680;85.304;2023-05-29T11:31:39;30.17;;;17.73;;
50906;SDS011;36882;27.680;85.304;2023-05-29T11:34:09;20.75;;;14.20;;
50906;SDS011;36882;27.680;85.304;2023-05-29T11:36:44;21.75;;;14.90;;
50906;SDS011;36882;27.680;85.304;2023-05-29T11:39:13;21.48;;;15.27;;
50906;SDS011;36882;27.680;85.304;2023-05-29T11:46:42;21.30;;;14.70;;
50906;SDS011;36882;27.680;85.304;2023-05-29T11:49:12;24.02;;;15.95;;
50906;SDS011;36882;27.680;85.304;2023-05-29T11:51:41;28.60;;;18.95;;
50906;SDS011;36882;27.680;85.304;2023-05-29T11:54:11;42.13;;;22.25;;
50906;SDS011;36882;27.680;85.304;2023-05-29T11:56:41;24.42;;;19.05;;
50906;SDS011;36882;27.680;85.304;2023-05-29T11:59:11;22.73;;;16.00;;
50906;SDS011;36882;27.680;85.304;2023-05-29T12:01:40;33.33;;;19.55;;
50906;SDS011;36882;27.680;85.304;2023-05-29T12:04:13;29.35;;;17.30;;
50906;SDS011;36882;27.680;85.304;2023-05-29T12:06:44;34.60;;;19.20;;
50906;SDS011;36882;27.680;85.304;2023-05-29T12:09:27;30.95;;;19.85;;
50906;SDS011;36882;27.680;85.304;2023-05-29T12:12:03;32.33;;;20.23;;
50906;SDS011;36882;27.680;85.304;2023-05-29T12:14:34;47.88;;;20.77;;
50906;SDS011;36882;27.680;85.304;2023-05-29T12:19:33;37.13;;;18.13;;
50906;SDS011;36882;27.680;85.304;2023-05-29T12:22:03;27.35;;;17.83;;
50906;SDS011;36882;27.680;85.304;2023-05-29T12:24:34;23.10;;;15.63;;
50906;SDS011;36882;27.680;85.304;2023-05-29T12:27:09;276.20;;;179.98;;
50906;SDS011;36882;27.680;85.304;2023-05-29T12:29:41;98.88;;;60.78;;
50906;SDS011;36882;27.680;85.304;2023-05-29T12:32:13;97.00;;;67.78;;
50906;SDS011;36882;27.680;85.304;2023-05-29T12:34:43;61.17;;;40.78;;
50906;SDS011;36882;27.680;85.304;2023-05-29T12:37:20;39.38;;;27.35;;
50906;SDS011;36882;27.680;85.304;2023-05-29T12:42:41;36.67;;;22.08;;
50906;SDS011;36882;27.680;85.304;2023-05-29T12:45:11;47.88;;;23.75;;
50906;SDS011;36882;27.680;85.304;2023-05-29T12:47:54;37.72;;;25.05;;
50906;SDS011;36882;27.680;85.304;2023-05-29T12:50:25;36.95;;;21.20;;
50906;SDS011;36882;27.680;85.304;2023-05-29T12:53:02;41.10;;;20.77;;
50906;SDS011;36882;27.680;85.304;2023-05-29T12:55:37;32.20;;;19.67;;
50906;SDS011;36882;27.680;85.304;2023-05-29T12:58:07;27.10;;;19.05;;
50906;SDS011;36882;27.680;85.304;2023-05-29T13:00:38;38.20;;;21.65;;
50906;SDS011;36882;27.680;85.304;2023-05-29T13:03:08;37.20;;;19.77;;
50906;SDS011;36882;27.680;85.304;2023-05-29T13:05:43;38.63;;;21.27;;
50906;SDS011;36882;27.680;85.304;2023-05-29T13:08:13;37.80;;;23.33;;
50906;SDS011;36882;27.680;85.304;2023-05-29T13:13:13;40.90;;;24.05;;
50906;SDS011;36882;27.680;85.304;2023-05-29T13:15:43;42.05;;;24.45;;
50906;SDS011;36882;27.680;85.304;2023-05-29T13:18:13;38.17;;;24.05;;
50906;SDS011;36882;27.680;85.304;2023-05-29T13:20:47;41.50;;;25.27;;
50906;SDS011;36882;27.680;85.304;2023-05-29T13:23:27;47.08;;;24.58;;
50906;SDS011;36882;27.680;85.304;2023-05-29T13:25:57;45.60;;;25.77;;
50906;SDS011;36882;27.680;85.304;2023-05-29T13:28:29;43.20;;;24.73;;
50906;SDS011;36882;27.680;85.304;2023-05-29T13:30:59;37.97;;;24.38;;
50906;SDS011;36882;27.680;85.304;2023-05-29T13:36:04;56.58;;;26.58;;
50906;SDS011;36882;27.680;85.304;2023-05-29T13:38:35;41.72;;;25.20;;
50906;SDS011;36882;27.680;85.304;2023-05-29T13:41:05;40.20;;;22.48;;
50906;SDS011;36882;27.680;85.304;2023-05-29T13:43:39;53.50;;;31.88;;
50906;SDS011;36882;27.680;85.304;2023-05-29T13:46:11;59.47;;;35.33;;
50906;SDS011;36882;27.680;85.304;2023-05-29T13:48:43;70.70;;;44.10;;
50906;SDS011;36882;27.680;85.304;2023-05-29T13:51:13;114.68;;;67.88;;
50906;SDS011;36882;27.680;85.304;2023-05-29T13:56:18;91.40;;;45.97;;
50906;SDS011;36882;27.680;85.304;2023-05-29T14:01:51;47.08;;;29.50;;
50906;SDS011;36882;27.680;85.304;2023-05-29T14:04:21;35.00;;;24.60;;
50906;SDS011;36882;27.680;85.304;2023-05-29T14:09:20;40.42;;;24.38;;
50906;SDS011;36882;27.680;85.304;2023-05-29T14:11:56;45.40;;;25.52;;
50906;SDS011;36882;27.680;85.304;2023-05-29T14:14:26;44.05;;;26.25;;
50906;SDS011;36882;27.680;85.304;2023-05-29T14:16:56;42.70;;;23.48;;
50906;SDS011;36882;27.680;85.304;2023-05-29T14:19:26;33.90;;;24.25;;
50906;SDS011;36882;27.680;85.304;2023-05-29T14:21:56;34.55;;;21.98;;
50906;SDS011;36882;27.680;85.304;2023-05-29T14:24:27;36.28;;;21.10;;
50906;SDS011;36882;27.680;85.304;2023-05-29T14:26:57;38.08;;;21.52;;
50906;SDS011;36882;27.680;85.304;2023-05-29T14:29:30;39.03;;;24.83;;
50906;SDS011;36882;27.680;85.304;2023-05-29T14:32:00;50.83;;;25.45;;
50906;SDS011;36882;27.680;85.304;2023-05-29T14:34:31;42.45;;;26.45;;
50906;SDS011;36882;27.680;85.304;2023-05-29T14:39:36;53.67;;;25.95;;
50906;SDS011;36882;27.680;85.304;2023-05-29T14:42:06;50.30;;;26.02;;
50906;SDS011;36882;27.680;85.304;2023-05-29T14:44:36;47.72;;;25.92;;
50906;SDS011;36882;27.680;85.304;2023-05-29T14:47:05;50.50;;;25.45;;
50906;SDS011;36882;27.680;85.304;2023-05-29T14:49:35;47.17;;;27.95;;
50906;SDS011;36882;27.680;85.304;2023-05-29T14:52:05;62.40;;;30.02;;
50906;SDS011;36882;27.680;85.304;2023-05-29T14:54:35;59.45;;;33.17;;
50906;SDS011;36882;27.680;85.304;2023-05-29T14:57:05;60.95;;;35.28;;
50906;SDS011;36882;27.680;85.304;2023-05-29T14:59:37;65.50;;;37.13;;
50906;SDS011;36882;27.680;85.304;2023-05-29T15:02:08;58.00;;;37.03;;
50906;SDS011;36882;27.680;85.304;2023-05-29T15:04:38;61.28;;;35.35;;
50906;SDS011;36882;27.680;85.304;2023-05-29T15:07:08;62.47;;;36.47;;
50906;SDS011;36882;27.680;85.304;2023-05-29T15:09:38;61.92;;;37.38;;
50906;SDS011;36882;27.680;85.304;2023-05-29T15:12:08;58.08;;;36.60;;
50906;SDS011;36882;27.680;85.304;2023-05-29T15:14:37;64.13;;;37.80;;
50906;SDS011;36882;27.680;85.304;2023-05-29T15:17:08;59.08;;;36.78;;
50906;SDS011;36882;27.680;85.304;2023-05-29T15:19:38;58.42;;;39.85;;
50906;SDS011;36882;27.680;85.304;2023-05-29T15:22:10;52.53;;;34.53;;
50906;SDS011;36882;27.680;85.304;2023-05-29T15:24:40;47.90;;;31.45;;
50906;SDS011;36882;27.680;85.304;2023-05-29T15:29:41;55.67;;;33.17;;
50906;SDS011;36882;27.680;85.304;2023-05-29T15:32:11;47.58;;;31.60;;
50906;SDS011;36882;27.680;85.304;2023-05-29T15:34:41;55.67;;;31.63;;
50906;SDS011;36882;27.680;85.304;2023-05-29T15:37:11;59.00;;;33.63;;
50906;SDS011;36882;27.680;85.304;2023-05-29T15:39:41;58.92;;;34.63;;
50906;SDS011;36882;27.680;85.304;2023-05-29T15:42:11;86.20;;;37.05;;
50906;SDS011;36882;27.680;85.304;2023-05-29T15:44:42;62.28;;;35.35;;
50906;SDS011;36882;27.680;85.304;2023-05-29T15:47:12;69.47;;;35.85;;
50906;SDS011;36882;27.680;85.304;2023-05-29T15:52:30;62.42;;;36.65;;
50906;SDS011;36882;27.680;85.304;2023-05-29T15:55:19;66.37;;;38.70;;
50906;SDS011;36882;27.680;85.304;2023-05-29T16:00:19;89.40;;;46.83;;
50906;SDS011;36882;27.680;85.304;2023-05-29T16:03:27;108.55;;;60.90;;
50906;SDS011;36882;27.680;85.304;2023-05-29T16:05:57;126.78;;;78.88;;
50906;SDS011;36882;27.680;85.304;2023-05-29T16:08:26;87.57;;;44.35;;
50906;SDS011;36882;27.680;85.304;2023-05-29T16:10:56;76.82;;;42.20;;
50906;SDS011;36882;27.680;85.304;2023-05-29T16:13:26;94.70;;;44.25;;
50906;SDS011;36882;27.680;85.304;2023-05-29T16:16:01;90.97;;;44.08;;
50906;SDS011;36882;27.680;85.304;2023-05-29T16:18:32;68.72;;;38.83;;
50906;SDS011;36882;27.680;85.304;2023-05-29T16:21:01;114.45;;;63.55;;
50906;SDS011;36882;27.680;85.304;2023-05-29T16:23:31;107.20;;;59.25;;
50906;SDS011;36882;27.680;85.304;2023-05-29T16:26:01;89.65;;;45.95;;
50906;SDS011;36882;27.680;85.304;2023-05-29T16:31:02;75.55;;;41.83;;
50906;SDS011;36882;27.680;85.304;2023-05-29T16:33:33;65.78;;;39.10;;
50906;SDS011;36882;27.680;85.304;2023-05-29T16:38:32;61.40;;;39.10;;
50906;SDS011;36882;27.680;85.304;2023-05-29T16:41:01;53.30;;;37.15;;